createdAt,value
2022-12-17T00:01:27.941Z,0.17
2022-12-17T00:04:13.385Z,0.20
2022-12-17T00:06:58.795Z,0.10
2022-12-17T00:10:02.845Z,0.17
2022-12-17T00:12:47.850Z,0.10
2022-12-17T00:15:33.057Z,0.27
2022-12-17T00:18:26.546Z,0.10
2022-12-17T00:21:13.936Z,0.10
2022-12-17T00:24:17.476Z,0.20
2022-12-17T00:27:02.684Z,0.10
2022-12-17T00:30:06.736Z,0.10
2022-12-17T00:32:52.089Z,0.20
2022-12-17T00:35:37.624Z,0.10
2022-12-17T00:38:23.018Z,0.10
2022-12-17T00:44:33.938Z,0.10
2022-12-17T00:47:37.737Z,0.20
2022-12-17T00:50:23.596Z,0.20
2022-12-17T00:53:11.421Z,0.20
2022-12-17T00:55:56.848Z,0.30
2022-12-17T00:58:42.725Z,0.20
2022-12-17T01:01:29.755Z,0.20
2022-12-17T01:04:15.071Z,0.10
2022-12-17T01:07:00.737Z,0.20
2022-12-17T01:09:48.817Z,0.10
2022-12-17T01:12:34.085Z,0.20
2022-12-17T01:15:19.477Z,0.20
2022-12-17T01:18:05.664Z,0.10
2022-12-17T01:20:50.928Z,0.10
2022-12-17T01:23:36.930Z,0.10
2022-12-17T01:26:22.996Z,0.10
2022-12-17T01:29:26.617Z,0.20
2022-12-17T01:32:12.004Z,0.20
2022-12-17T01:34:57.434Z,0.30
2022-12-17T01:37:42.874Z,0.20
2022-12-17T01:40:28.998Z,0.30
2022-12-17T01:43:49.407Z,0.30
2022-12-17T01:46:34.904Z,0.60
2022-12-17T01:49:20.554Z,0.50
2022-12-17T01:52:07.272Z,0.83
2022-12-17T01:54:53.135Z,0.50
2022-12-17T01:57:38.305Z,0.80
2022-12-17T02:00:27.655Z,0.80
2022-12-17T02:03:14.679Z,0.67
2022-12-17T02:06:15.180Z,1.17
2022-12-17T02:09:10.998Z,0.70
2022-12-17T02:12:17.957Z,0.43
2022-12-17T02:15:20.405Z,0.77
2022-12-17T02:18:11.355Z,0.73
2022-12-17T02:21:07.019Z,0.23
2022-12-17T02:24:06.499Z,0.20
2022-12-17T02:27:15.254Z,0.20
2022-12-17T02:30:07.697Z,0.20
2022-12-17T02:32:55.976Z,0.20
2022-12-17T02:35:46.752Z,0.10
2022-12-17T02:38:43.818Z,0.20
2022-12-17T02:41:35.211Z,0.20
2022-12-17T02:44:21.805Z,0.10
2022-12-17T02:47:10.695Z,0.20
2022-12-17T02:49:56.225Z,0.30
2022-12-17T02:52:43.235Z,0.20
2022-12-17T02:55:28.906Z,0.20
2022-12-17T02:58:14.909Z,0.10
2022-12-17T03:01:00.207Z,0.17
2022-12-17T03:03:50.091Z,0.20
2022-12-17T03:06:36.161Z,0.17
2022-12-17T03:09:21.613Z,0.30
2022-12-17T03:12:06.857Z,0.30
2022-12-17T03:14:52.291Z,0.20
2022-12-17T03:17:37.567Z,0.10
2022-12-17T03:20:23.485Z,0.20
2022-12-17T03:23:08.949Z,0.13
2022-12-17T03:25:54.513Z,0.20
2022-12-17T03:28:39.902Z,0.23
2022-12-17T03:31:25.134Z,0.30
2022-12-17T03:34:10.440Z,0.20
2022-12-17T03:36:55.725Z,0.30
2022-12-17T03:39:40.973Z,0.20
2022-12-17T03:42:45.365Z,0.50
2022-12-17T03:45:31.053Z,0.37
2022-12-17T03:48:31.078Z,0.40
2022-12-17T03:51:16.790Z,0.40
2022-12-17T03:54:02.588Z,0.50
2022-12-17T03:56:48.427Z,0.50
2022-12-17T03:59:34.167Z,0.30
2022-12-17T04:02:19.689Z,0.40
2022-12-17T04:05:04.920Z,0.27
2022-12-17T04:07:50.265Z,0.40
2022-12-17T04:10:35.500Z,0.50
2022-12-17T04:13:20.750Z,0.30
2022-12-17T04:16:06.115Z,0.40
2022-12-17T04:19:09.883Z,0.30
2022-12-17T04:21:55.121Z,0.40
2022-12-17T04:24:40.523Z,0.40
2022-12-17T04:27:26.128Z,0.40
2022-12-17T04:30:25.169Z,0.40
2022-12-17T04:33:28.689Z,0.47
2022-12-17T04:36:14.058Z,0.30
2022-12-17T04:38:59.495Z,0.30
2022-12-17T04:41:44.728Z,0.57
2022-12-17T04:44:30.209Z,0.30
2022-12-17T04:47:15.549Z,0.30
2022-12-17T04:50:00.945Z,0.20
2022-12-17T04:52:46.232Z,0.30
2022-12-17T04:55:31.359Z,0.20
2022-12-17T04:58:24.136Z,0.20
2022-12-17T05:01:13.047Z,0.23
2022-12-17T05:03:59.219Z,0.30
2022-12-17T05:06:44.798Z,0.20
2022-12-17T05:09:30.192Z,0.20
2022-12-17T05:12:34.257Z,0.20
2022-12-17T05:15:19.521Z,0.20
2022-12-17T05:18:04.813Z,0.37
2022-12-17T05:20:49.960Z,0.20
2022-12-17T05:23:35.717Z,0.30
2022-12-17T05:26:26.373Z,0.30
2022-12-17T05:29:15.786Z,0.10
2022-12-17T05:32:20.132Z,0.20
2022-12-17T05:35:05.646Z,0.20
2022-12-17T05:37:50.894Z,0.20
2022-12-17T05:40:36.051Z,0.20
2022-12-17T05:43:40.250Z,0.30
2022-12-17T05:46:26.105Z,0.40
2022-12-17T05:49:11.585Z,0.20
2022-12-17T05:51:56.822Z,0.20
2022-12-17T05:54:42.437Z,0.40
2022-12-17T05:57:27.855Z,0.30
2022-12-17T06:00:13.347Z,0.20
2022-12-17T06:02:58.752Z,0.30
2022-12-17T06:05:44.336Z,0.20
2022-12-17T06:08:29.871Z,0.20
2022-12-17T06:11:18.108Z,0.30
2022-12-17T06:14:03.937Z,0.30
2022-12-17T06:16:49.220Z,0.30
2022-12-17T06:19:34.443Z,0.20
2022-12-17T06:22:19.885Z,0.30
2022-12-17T06:25:05.143Z,0.30
2022-12-17T06:28:16.190Z,0.20
2022-12-17T06:31:01.550Z,0.23
2022-12-17T06:33:46.804Z,0.20
2022-12-17T06:36:32.047Z,0.40
2022-12-17T06:39:17.816Z,0.40
2022-12-17T06:42:04.735Z,0.30
2022-12-17T06:44:50.695Z,0.30
2022-12-17T06:47:36.261Z,0.20
2022-12-17T06:50:21.952Z,0.30
2022-12-17T06:53:07.302Z,0.37
2022-12-17T06:56:11.741Z,0.20
2022-12-17T06:58:56.679Z,0.30
2022-12-17T07:01:42.205Z,0.30
2022-12-17T07:04:46.017Z,0.30
2022-12-17T07:07:51.169Z,0.40
2022-12-17T07:10:37.901Z,0.50
2022-12-17T07:13:27.236Z,0.30
2022-12-17T07:16:13.216Z,0.30
2022-12-17T07:18:58.729Z,0.40
2022-12-17T07:21:44.557Z,0.30
2022-12-17T07:24:30.205Z,0.20
2022-12-17T07:27:15.945Z,0.23
2022-12-17T07:30:01.238Z,0.40
2022-12-17T07:32:46.534Z,0.20
2022-12-17T07:35:31.848Z,0.30
2022-12-17T07:38:41.685Z,0.20
2022-12-17T07:41:26.913Z,0.20
2022-12-17T07:44:12.232Z,0.30
2022-12-17T07:46:57.340Z,0.20
2022-12-17T07:49:42.660Z,0.40
2022-12-17T07:52:27.929Z,0.40
2022-12-17T07:55:18.052Z,0.40
2022-12-17T07:58:03.838Z,0.43
2022-12-17T08:00:49.561Z,0.40
2022-12-17T08:03:35.432Z,0.40
2022-12-17T08:06:20.909Z,0.43
2022-12-17T08:09:06.260Z,0.40
2022-12-17T08:11:51.567Z,0.30
2022-12-17T08:14:36.909Z,0.60
2022-12-17T08:17:22.264Z,0.60
2022-12-17T08:20:07.768Z,0.60
2022-12-17T08:22:53.045Z,0.40
2022-12-17T08:25:38.356Z,0.50
2022-12-17T08:31:29.199Z,0.73
2022-12-17T08:34:14.527Z,0.73
2022-12-17T08:37:00.153Z,0.40
2022-12-17T08:39:45.738Z,0.60
2022-12-17T08:42:30.956Z,0.47
2022-12-17T08:45:16.336Z,0.77
2022-12-17T08:48:04.167Z,0.67
2022-12-17T08:50:49.931Z,1.10
2022-12-17T08:53:35.367Z,0.90
2022-12-17T08:56:21.318Z,0.70
2022-12-17T09:02:10.111Z,0.90
2022-12-17T09:04:55.992Z,1.10
2022-12-17T09:07:41.432Z,0.90
2022-12-17T09:13:56.601Z,1.37
2022-12-17T09:19:46.037Z,0.70
2022-12-17T09:22:32.561Z,0.70
2022-12-17T09:25:17.847Z,1.00
2022-12-17T09:28:03.337Z,1.40
2022-12-17T09:30:48.621Z,0.93
2022-12-17T09:33:35.442Z,1.00
2022-12-17T09:36:22.957Z,0.63
2022-12-17T09:39:08.676Z,0.70
2022-12-17T09:42:32.514Z,0.77
2022-12-17T09:45:45.483Z,0.40
2022-12-17T09:48:39.825Z,1.03
2022-12-17T09:51:40.588Z,0.80
2022-12-17T09:54:38.693Z,0.77
2022-12-17T09:57:27.791Z,0.80
2022-12-17T10:00:54.995Z,0.83
2022-12-17T10:04:05.669Z,0.93
2022-12-17T10:06:52.061Z,0.60
2022-12-17T10:09:37.713Z,1.10
2022-12-17T10:12:35.731Z,1.03
2022-12-17T10:15:21.424Z,1.10
2022-12-17T10:18:06.829Z,0.97
2022-12-17T10:21:17.032Z,0.80
2022-12-17T10:24:02.642Z,0.80
2022-12-17T10:26:50.702Z,1.20
2022-12-17T10:29:48.223Z,0.80
2022-12-17T10:32:52.532Z,1.07
2022-12-17T10:35:56.469Z,1.23
2022-12-17T10:39:01.999Z,1.40
2022-12-17T10:41:53.272Z,1.80
2022-12-17T10:44:44.371Z,1.87
2022-12-17T10:47:31.782Z,1.17
2022-12-17T10:50:20.475Z,1.77
2022-12-17T10:53:45.261Z,1.53
2022-12-17T10:56:49.386Z,1.37
2022-12-17T11:00:12.409Z,1.33
2022-12-17T11:03:15.985Z,1.20
2022-12-17T11:06:01.663Z,0.80
2022-12-17T11:08:49.918Z,1.10
2022-12-17T11:11:35.619Z,1.27
2022-12-17T11:14:23.881Z,1.10
2022-12-17T11:17:13.847Z,1.43
2022-12-17T11:20:17.416Z,1.30
2022-12-17T11:23:40.447Z,1.20
2022-12-17T11:26:31.214Z,0.97
2022-12-17T11:29:18.204Z,1.50
2022-12-17T11:32:32.332Z,1.53
2022-12-17T11:35:43.609Z,1.63
2022-12-17T11:38:40.521Z,1.23
2022-12-17T11:41:43.205Z,1.40
2022-12-17T11:44:53.350Z,1.63
2022-12-17T11:48:00.544Z,1.13
2022-12-17T11:51:17.574Z,1.67
2022-12-17T11:54:25.213Z,1.47
2022-12-17T11:57:21.753Z,1.60
2022-12-17T12:00:20.197Z,1.27
2022-12-17T12:03:14.482Z,1.40
2022-12-17T12:06:16.271Z,1.20
2022-12-17T12:09:36.731Z,1.43
2022-12-17T12:12:38.586Z,1.03
2022-12-17T12:15:42.832Z,1.20
2022-12-17T12:18:34.034Z,1.17
2022-12-17T12:25:01.298Z,0.83
2022-12-17T12:28:24.126Z,0.70
2022-12-17T12:31:36.899Z,0.60
2022-12-17T12:34:30.072Z,0.90
2022-12-17T12:37:19.302Z,0.77
2022-12-17T12:40:14.738Z,1.00
2022-12-17T12:43:41.882Z,1.17
2022-12-17T12:46:58.994Z,1.43
2022-12-17T12:49:56.865Z,1.60
2022-12-17T12:52:45.372Z,2.37
2022-12-17T12:55:31.271Z,1.93
2022-12-17T12:58:45.105Z,1.30
2022-12-17T13:01:30.968Z,0.70
2022-12-17T13:04:18.893Z,0.70
2022-12-17T13:12:47.246Z,1.80
2022-12-17T13:15:26.807Z,2.10
2022-12-17T13:18:07.055Z,1.93
2022-12-17T13:20:35.214Z,2.00
2022-12-17T13:23:25.806Z,2.03
2022-12-17T13:26:22.663Z,2.10
2022-12-17T13:29:18.276Z,0.40
2022-12-17T13:32:08.113Z,0.30
2022-12-17T13:35:13.204Z,0.50
2022-12-17T13:38:03.354Z,0.30
2022-12-17T13:40:32.914Z,0.30
2022-12-17T13:42:59.868Z,0.80
2022-12-17T13:45:27.684Z,0.40
2022-12-17T13:47:59.280Z,0.37
2022-12-17T13:50:34.449Z,0.23
2022-12-17T13:53:15.494Z,0.60
2022-12-17T13:55:51.320Z,0.40
2022-12-17T13:58:28.380Z,0.40
2022-12-17T14:01:13.153Z,0.47
2022-12-17T14:06:38.496Z,0.40
2022-12-17T14:09:06.057Z,0.37
2022-12-17T14:11:52.189Z,0.30
2022-12-17T14:14:32.692Z,0.30
2022-12-17T14:19:44.425Z,0.30
2022-12-17T14:22:24.685Z,0.27
2022-12-17T14:24:51.614Z,0.30
2022-12-17T14:27:24.927Z,0.37
2022-12-17T14:29:51.668Z,0.30
2022-12-17T14:32:30.945Z,0.60
2022-12-17T14:35:00.849Z,0.40
2022-12-17T14:37:29.550Z,0.20
2022-12-17T14:40:02.846Z,0.23
2022-12-17T14:42:30.359Z,0.60
2022-12-17T14:45:00.865Z,0.70
2022-12-17T14:47:32.880Z,0.47
2022-12-17T14:50:07.854Z,0.50
2022-12-17T14:52:37.666Z,0.40
2022-12-17T14:55:30.060Z,0.20
2022-12-17T14:58:20.394Z,0.40
2022-12-17T15:00:51.967Z,0.47
2022-12-17T15:03:31.362Z,0.37
2022-12-17T15:06:04.568Z,0.40
2022-12-17T15:08:36.974Z,0.80
2022-12-17T15:13:55.896Z,0.60
2022-12-17T15:16:23.685Z,0.30
2022-12-17T15:18:50.448Z,0.50
2022-12-17T15:21:18.605Z,0.47
2022-12-17T15:23:46.700Z,0.50
2022-12-17T15:26:17.455Z,0.70
2022-12-17T15:28:44.716Z,0.30
2022-12-17T15:31:35.370Z,0.23
2022-12-17T15:34:02.722Z,0.47
2022-12-17T15:36:49.092Z,0.30
2022-12-17T15:39:15.882Z,0.40
2022-12-17T15:42:01.378Z,0.40
2022-12-17T15:47:31.630Z,0.80
2022-12-17T15:49:58.462Z,0.60
2022-12-17T15:52:44.739Z,0.40
2022-12-17T15:55:12.019Z,0.50
2022-12-17T15:57:58.219Z,0.60
2022-12-17T16:00:43.680Z,0.63
2022-12-17T16:03:29.176Z,0.57
2022-12-17T16:05:56.035Z,1.33
2022-12-17T16:08:22.840Z,1.47
2022-12-17T16:10:49.638Z,1.67
2022-12-17T16:13:16.397Z,1.03
2022-12-17T16:16:04.299Z,1.00
2022-12-17T16:18:32.100Z,1.37
2022-12-17T16:21:06.791Z,2.10
2022-12-17T16:23:33.595Z,1.77
2022-12-17T16:26:02.130Z,1.90
2022-12-17T16:28:48.455Z,1.93
2022-12-17T16:31:15.831Z,2.13
2022-12-17T16:33:44.405Z,2.73
2022-12-17T16:36:30.389Z,3.97
2022-12-17T16:38:57.285Z,4.10
2022-12-17T16:44:28.424Z,3.53
2022-12-17T16:46:55.416Z,3.00
2022-12-17T16:49:23.862Z,2.80
2022-12-17T16:58:03.648Z,3.33
2022-12-17T17:00:50.082Z,3.07
2022-12-17T17:03:35.877Z,3.30
2022-12-17T17:09:07.864Z,3.07
2022-12-17T17:11:35.037Z,2.97
2022-12-17T17:14:02.036Z,2.87
2022-12-17T17:16:28.936Z,3.70
2022-12-17T17:18:56.576Z,4.83
2022-12-17T17:21:25.992Z,6.63
2022-12-17T17:27:01.501Z,6.17
2022-12-17T17:29:28.225Z,5.10
2022-12-17T17:32:14.333Z,4.33
2022-12-17T17:34:41.365Z,4.23
2022-12-17T17:37:08.362Z,3.43
2022-12-17T17:39:35.261Z,2.77
2022-12-17T17:42:02.515Z,3.70
2022-12-17T17:44:29.331Z,3.87
2022-12-17T17:46:56.171Z,4.20
2022-12-17T17:49:23.507Z,5.50
2022-12-17T17:54:39.640Z,7.57
2022-12-17T17:57:06.695Z,7.83
2022-12-17T17:59:34.397Z,8.03
2022-12-17T18:07:52.178Z,8.17
2022-12-17T18:10:18.935Z,9.33
2022-12-17T18:13:04.873Z,9.70
2022-12-17T18:15:51.071Z,9.37
2022-12-17T18:18:38.154Z,10.73
2022-12-17T18:21:28.882Z,9.83
2022-12-17T18:24:01.205Z,9.33
2022-12-17T18:26:30.937Z,8.60
2022-12-17T18:29:04.060Z,7.47
2022-12-17T18:31:51.908Z,8.30
2022-12-17T18:34:37.523Z,6.57
2022-12-17T18:37:05.316Z,5.97
2022-12-17T18:39:33.029Z,5.70
2022-12-17T18:42:38.036Z,7.57
2022-12-17T18:45:45.132Z,5.80
2022-12-17T18:48:12.198Z,4.87
2022-12-17T18:50:38.929Z,5.57
2022-12-17T18:53:05.747Z,6.20
2022-12-17T18:55:32.618Z,7.50
2022-12-17T19:01:03.444Z,5.47
2022-12-17T19:03:30.280Z,5.83
2022-12-17T19:06:16.187Z,6.43
2022-12-17T19:09:03.224Z,6.60
2022-12-17T19:14:33.978Z,6.43
2022-12-17T19:17:20.246Z,7.23
2022-12-17T19:20:25.513Z,7.23
2022-12-17T19:23:11.185Z,7.53
2022-12-17T19:25:37.918Z,6.93
2022-12-17T19:28:23.187Z,6.00
2022-12-17T19:31:30.045Z,7.33
2022-12-17T19:34:20.214Z,7.90
2022-12-17T19:37:06.664Z,7.90
2022-12-17T19:39:33.405Z,8.23
2022-12-17T19:42:00.110Z,8.57
2022-12-17T19:44:27.287Z,7.17
2022-12-17T19:46:54.022Z,5.40
2022-12-17T19:49:20.789Z,4.13
2022-12-17T19:54:32.722Z,3.23
2022-12-17T19:57:19.002Z,3.17
2022-12-17T20:00:05.129Z,2.60
2022-12-17T20:02:39.654Z,1.77
2022-12-17T20:10:56.029Z,1.30
2022-12-17T20:13:22.953Z,1.23
2022-12-17T20:16:08.690Z,2.17
2022-12-17T20:18:35.832Z,2.73
2022-12-17T20:21:21.626Z,2.40
2022-12-17T20:24:09.088Z,3.50
2022-12-17T20:26:55.133Z,2.77
2022-12-17T20:29:40.352Z,1.87
2022-12-17T20:32:07.340Z,3.00
2022-12-17T20:34:34.174Z,2.67
2022-12-17T20:37:00.973Z,2.23
2022-12-17T20:39:28.345Z,2.50
2022-12-17T20:41:56.264Z,2.23
2022-12-17T20:47:08.575Z,3.03
2022-12-17T20:49:54.222Z,3.30
2022-12-17T20:52:21.039Z,4.17
2022-12-17T20:55:06.590Z,5.27
2022-12-17T20:57:33.399Z,7.30
2022-12-17T21:00:00.084Z,7.00
2022-12-17T21:05:12.497Z,7.50
2022-12-17T21:07:39.392Z,6.53
2022-12-17T21:10:25.281Z,6.37
2022-12-17T21:13:27.626Z,7.70
2022-12-17T21:15:54.935Z,5.73
2022-12-17T21:18:22.023Z,5.23
2022-12-17T21:21:29.119Z,4.07
2022-12-17T21:24:14.889Z,2.90
2022-12-17T21:26:44.468Z,2.60
2022-12-17T21:29:30.386Z,2.93
2022-12-17T21:31:57.164Z,2.23
2022-12-17T21:34:25.446Z,2.37
2022-12-17T21:36:52.411Z,2.10
2022-12-17T21:39:20.834Z,2.17
2022-12-17T21:42:07.832Z,3.07
2022-12-17T21:44:35.732Z,2.57
2022-12-17T21:47:02.582Z,1.97
2022-12-17T21:49:29.415Z,2.07
2022-12-17T21:51:59.263Z,1.97
2022-12-17T21:54:46.241Z,2.30
2022-12-17T21:57:31.222Z,2.40
2022-12-17T22:00:16.952Z,2.50
2022-12-17T22:02:43.995Z,3.73
2022-12-17T22:05:16.234Z,4.00
2022-12-17T22:08:02.970Z,3.67
2022-12-17T22:10:48.150Z,11.10
2022-12-17T22:16:21.930Z,25.33
2022-12-17T22:19:08.049Z,19.10
2022-12-17T22:21:36.370Z,17.00
2022-12-17T22:24:03.813Z,16.30
2022-12-17T22:26:49.700Z,8.37
2022-12-17T22:29:37.154Z,5.10
2022-12-17T22:32:22.953Z,4.43
2022-12-17T22:36:33.463Z,3.03
2022-12-17T22:41:45.040Z,2.37
2022-12-17T22:44:42.079Z,1.37
2022-12-17T22:44:46.623Z,1.37
2022-12-17T22:47:00.207Z,1.40
2022-12-17T22:49:27.206Z,2.67
2022-12-17T22:51:53.917Z,2.10
2022-12-17T22:54:21.058Z,1.43
2022-12-17T22:57:25.879Z,1.97
2022-12-17T22:59:34.893Z,1.93
2022-12-17T23:02:01.765Z,1.10
2022-12-17T23:04:28.626Z,0.67
2022-12-17T23:06:55.366Z,1.00
2022-12-17T23:09:23.982Z,1.43
2022-12-17T23:11:50.744Z,1.57
2022-12-17T23:14:17.857Z,1.53
2022-12-17T23:16:45.236Z,1.47
2022-12-17T23:19:12.734Z,1.90
2022-12-17T23:21:39.459Z,1.70
2022-12-17T23:24:06.645Z,1.67
2022-12-17T23:26:36.626Z,1.37
2022-12-17T23:29:17.646Z,1.30
2022-12-17T23:31:46.689Z,1.73
2022-12-17T23:34:13.590Z,3.83
2022-12-17T23:36:40.379Z,2.07
2022-12-17T23:39:07.226Z,1.93
2022-12-17T23:41:54.321Z,2.00
2022-12-17T23:44:39.530Z,2.20
2022-12-17T23:47:06.297Z,1.93
2022-12-17T23:49:33.067Z,2.73
2022-12-17T23:51:59.865Z,1.47
2022-12-17T23:54:26.601Z,2.03
2022-12-17T23:56:53.377Z,2.70
2022-12-17T23:59:20.554Z,2.20
